Time;durP1;ratioP1;P1;durP2;ratioP2;P2;SDS_P1;SDS_P2;PMS_P1;PMS_P2;Temp;Humidity;BMP_temperature;BMP_pressure;BME280_temperature;BME280_humidity;BME280_pressure;Samples;Min_cycle;Max_cycle;Signal;HPM_P1;HPM_P2
2022/10/08 00:01:42;;;;;;;13.48;2.88;;;10.60;99.90;;;;;;6117958;23;20373;-80
2022/10/08 00:04:11;;;;;;;10.20;3.10;;;10.60;99.90;;;;;;6117062;23;20002;-80
2022/10/08 00:06:37;;;;;;;6.03;3.08;;;10.60;99.90;;;;;;6117917;23;20016;-80
2022/10/08 00:09:05;;;;;;;7.70;3.00;;;10.60;99.90;;;;;;6117729;23;20042;-80
2022/10/08 00:11:34;;;;;;;9.65;3.40;;;10.60;99.90;;;;;;6117868;23;20036;-80
2022/10/08 00:14:00;;;;;;;6.97;2.70;;;10.60;99.90;;;;;;6116607;23;20008;-80
2022/10/08 00:16:38;;;;;;;13.07;3.22;;;10.50;99.90;;;;;;6117179;23;20076;-80
2022/10/08 00:19:09;;;;;;;12.15;2.58;;;10.50;99.90;;;;;;6115758;23;19998;-80
2022/10/08 00:21:38;;;;;;;10.65;2.92;;;10.50;99.90;;;;;;6118068;22;20089;-80
2022/10/08 00:24:05;;;;;;;14.02;2.63;;;10.50;99.90;;;;;;6116149;23;20013;-79
2022/10/08 00:26:33;;;;;;;13.40;3.10;;;10.50;99.90;;;;;;6117242;23;20407;-80
2022/10/08 00:29:01;;;;;;;13.05;3.60;;;10.50;99.90;;;;;;6116122;23;20458;-80
2022/10/08 00:31:40;;;;;;;8.25;3.17;;;10.50;99.90;;;;;;6117393;23;20002;-80
2022/10/08 00:34:17;;;;;;;8.25;3.13;;;10.50;99.90;;;;;;6117560;23;20335;-80
2022/10/08 00:36:43;;;;;;;6.20;2.58;;;10.50;99.90;;;;;;6118180;23;20006;-80
2022/10/08 00:39:18;;;;;;;13.32;2.97;;;10.50;99.90;;;;;;6116764;23;20099;-79
2022/10/08 00:41:46;;;;;;;4.45;2.42;;;10.50;99.90;;;;;;6117971;23;20013;-80
2022/10/08 00:44:49;;;;;;;8.98;3.20;;;10.60;99.90;;;;;;6116808;23;20359;-80
2022/10/08 00:47:37;;;;;;;6.05;2.55;;;10.60;99.90;;;;;;6116620;23;20016;-80
2022/10/08 00:50:21;;;;;;;10.07;3.13;;;10.60;99.90;;;;;;6117400;23;20440;-80
2022/10/08 00:52:54;;;;;;;9.63;3.05;;;10.60;99.90;;;;;;6117788;23;20010;-80
2022/10/08 00:55:22;;;;;;;10.02;3.05;;;10.60;99.90;;;;;;6118177;23;20002;-81
2022/10/08 00:57:48;;;;;;;9.77;2.92;;;10.60;99.90;;;;;;6117568;23;20328;-81
2022/10/08 01:00:22;;;;;;;14.38;3.35;;;10.70;99.90;;;;;;6117970;23;20025;-80
2022/10/08 01:02:48;;;;;;;9.30;3.47;;;10.70;99.90;;;;;;6115782;23;20037;-80
2022/10/08 01:05:18;;;;;;;5.32;2.60;;;10.70;99.90;;;;;;6118057;23;20363;-80
2022/10/08 01:07:59;;;;;;;6.53;2.78;;;10.70;99.90;;;;;;6116926;23;20002;-80
2022/10/08 01:11:05;;;;;;;9.10;2.92;;;10.70;99.90;;;;;;6117360;23;20029;-80
2022/10/08 01:13:38;;;;;;;7.80;2.60;;;10.80;99.90;;;;;;6027106;23;20130;-80
2022/10/08 01:16:26;;;;;;;6.65;2.88;;;10.80;99.90;;;;;;6027797;23;20003;-80
2022/10/08 01:19:08;;;;;;;8.05;2.55;;;10.80;99.90;;;;;;6086353;23;20002;-80
2022/10/08 01:21:46;;;;;;;7.10;2.90;;;10.80;99.90;;;;;;6117293;23;20026;-80
2022/10/08 01:24:21;;;;;;;8.38;3.45;;;10.80;99.90;;;;;;6116399;23;20006;-80
2022/10/08 01:27:04;;;;;;;13.68;3.13;;;10.90;99.90;;;;;;6117081;23;20048;-80
2022/10/08 01:29:41;;;;;;;9.30;2.45;;;10.90;99.90;;;;;;6116606;23;20094;-81
2022/10/08 01:32:14;;;;;;;9.77;2.50;;;10.80;99.90;;;;;;6116633;23;20067;-80
2022/10/08 01:34:46;;;;;;;6.15;3.13;;;10.80;99.90;;;;;;6114312;23;20056;-80
2022/10/08 01:37:25;;;;;;;5.93;2.63;;;10.90;99.90;;;;;;6117000;23;20002;-80
2022/10/08 01:39:55;;;;;;;6.43;2.67;;;11.00;99.90;;;;;;6117635;23;20006;-79
2022/10/08 01:42:25;;;;;;;7.70;2.92;;;11.00;99.90;;;;;;6117484;23;20002;-80
2022/10/08 01:44:57;;;;;;;7.63;3.33;;;10.90;99.90;;;;;;6117265;23;20064;-80
2022/10/08 01:47:27;;;;;;;14.57;2.97;;;11.00;99.90;;;;;;6116968;23;20012;-78
2022/10/08 01:50:02;;;;;;;12.40;3.58;;;11.00;99.90;;;;;;6117137;23;20089;-79
2022/10/08 01:52:35;;;;;;;7.22;2.90;;;11.00;99.90;;;;;;6115334;23;20140;-80
2022/10/08 01:55:05;;;;;;;13.48;2.60;;;11.00;99.90;;;;;;6117388;23;20132;-80
2022/10/08 01:57:32;;;;;;;10.77;3.00;;;11.00;99.90;;;;;;6116416;23;20002;-80
2022/10/08 02:00:06;;;;;;;6.20;2.45;;;11.00;99.90;;;;;;6116502;23;20009;-80
2022/10/08 02:02:31;;;;;;;7.80;3.05;;;11.00;99.90;;;;;;6115911;23;20002;-80
2022/10/08 02:04:57;;;;;;;8.60;2.47;;;11.00;99.90;;;;;;6116833;23;20002;-80
2022/10/08 02:07:27;;;;;;;6.57;2.67;;;11.00;99.90;;;;;;6116852;23;20006;-80
2022/10/08 02:10:01;;;;;;;5.72;2.65;;;11.00;99.90;;;;;;6116658;23;20317;-80
2022/10/08 02:12:30;;;;;;;7.30;2.30;;;11.00;99.90;;;;;;6116847;23;20482;-78
2022/10/08 02:14:57;;;;;;;8.82;3.28;;;11.00;99.90;;;;;;6116341;23;20006;-80
2022/10/08 02:17:39;;;;;;;9.50;3.55;;;10.90;99.90;;;;;;6116273;23;20424;-79
2022/10/08 02:20:25;;;;;;;9.02;2.75;;;10.90;99.90;;;;;;6117123;23;20071;-80
2022/10/08 02:23:04;;;;;;;8.60;3.25;;;10.90;99.90;;;;;;6116290;23;20063;-81
2022/10/08 02:25:42;;;;;;;14.18;3.17;;;11.00;99.90;;;;;;6117026;23;20328;-80
2022/10/08 02:28:24;;;;;;;9.65;3.08;;;10.80;99.90;;;;;;6116960;23;20081;-80
2022/10/08 02:30:54;;;;;;;5.85;2.78;;;10.80;99.90;;;;;;6118267;23;20367;-81
2022/10/08 02:33:43;;;;;;;11.70;3.22;;;10.80;99.90;;;;;;6117168;23;20423;-80
2022/10/08 02:36:23;;;;;;;11.25;3.38;;;10.70;99.90;;;;;;6117578;23;20002;-79
2022/10/08 02:38:53;;;;;;;7.60;2.97;;;10.70;99.90;;;;;;6117600;23;20013;-80
2022/10/08 02:41:27;;;;;;;5.63;2.85;;;10.70;99.90;;;;;;6118292;23;20424;-80
2022/10/08 02:43:57;;;;;;;7.20;3.50;;;10.70;99.90;;;;;;6116690;23;20009;-80
2022/10/08 02:46:27;;;;;;;8.13;3.25;;;10.70;99.90;;;;;;6117968;23;20002;-79
2022/10/08 02:49:17;;;;;;;8.95;3.97;;;10.60;99.90;;;;;;6117287;23;20014;-79
2022/10/08 02:51:50;;;;;;;13.35;4.82;;;10.60;99.90;;;;;;6118361;23;20060;-80
2022/10/08 02:54:21;;;;;;;15.95;4.57;;;10.60;99.90;;;;;;6117599;23;20004;-80
2022/10/08 02:57:12;;;;;;;10.02;4.00;;;10.60;99.90;;;;;;6118689;23;20366;-80
2022/10/08 02:59:38;;;;;;;9.23;4.60;;;10.60;99.90;;;;;;6117701;23;20021;-80
2022/10/08 03:02:05;;;;;;;13.68;4.60;;;10.60;99.90;;;;;;6118709;23;20002;-80
2022/10/08 03:04:37;;;;;;;13.27;3.90;;;10.60;99.90;;;;;;6117079;23;20013;-80
2022/10/08 03:07:04;;;;;;;6.57;3.40;;;10.50;99.90;;;;;;6119073;23;20002;-80
2022/10/08 03:09:38;;;;;;;10.77;3.75;;;10.50;99.90;;;;;;6116863;23;20084;-80
2022/10/08 03:12:05;;;;;;;17.77;3.63;;;10.40;99.90;;;;;;6119187;23;20005;-80
2022/10/08 03:14:38;;;;;;;8.68;4.07;;;10.40;99.90;;;;;;6116167;23;20006;-80
2022/10/08 03:17:09;;;;;;;13.45;3.78;;;10.30;99.90;;;;;;6118583;23;20013;-80
2022/10/08 03:19:35;;;;;;;14.48;4.20;;;10.30;99.90;;;;;;6118475;23;20006;-80
2022/10/08 03:22:01;;;;;;;7.80;3.03;;;10.30;99.90;;;;;;6118355;23;20091;-80
2022/10/08 03:24:27;;;;;;;14.68;4.00;;;10.30;99.90;;;;;;6116829;23;20106;-80
2022/10/08 03:26:53;;;;;;;8.65;3.53;;;10.30;99.90;;;;;;6118090;23;20002;-80
2022/10/08 03:29:22;;;;;;;19.65;3.72;;;10.20;99.90;;;;;;6118800;23;20017;-80
2022/10/08 03:31:48;;;;;;;15.13;3.75;;;10.20;99.90;;;;;;6117889;23;20025;-80
2022/10/08 03:34:13;;;;;;;16.25;3.85;;;10.20;99.90;;;;;;6115517;23;20005;-80
2022/10/08 03:36:39;;;;;;;6.32;2.65;;;10.20;99.90;;;;;;6116314;23;20007;-79
2022/10/08 03:39:05;;;;;;;14.18;3.85;;;10.30;99.90;;;;;;6119040;23;20128;-81
2022/10/08 03:41:30;;;;;;;16.33;3.40;;;10.20;99.90;;;;;;6117710;23;20419;-80
2022/10/08 03:43:58;;;;;;;9.55;3.50;;;10.20;99.90;;;;;;6116107;23;20064;-80
2022/10/08 03:46:23;;;;;;;14.52;4.03;;;10.10;99.90;;;;;;6117624;23;20001;-80
2022/10/08 03:48:49;;;;;;;12.80;3.67;;;10.20;99.90;;;;;;6115843;23;20096;-80
2022/10/08 03:51:19;;;;;;;13.43;3.53;;;10.10;99.90;;;;;;6117963;23;20051;-80
2022/10/08 03:53:44;;;;;;;13.95;3.50;;;10.00;99.90;;;;;;6116875;23;20002;-80
2022/10/08 03:56:15;;;;;;;15.00;3.00;;;9.90;99.90;;;;;;6115894;23;20013;-80
2022/10/08 03:58:41;;;;;;;9.70;4.15;;;9.90;99.90;;;;;;6117888;23;20002;-80
2022/10/08 04:01:11;;;;;;;7.97;3.17;;;9.90;99.90;;;;;;6116373;23;20372;-80
2022/10/08 04:03:36;;;;;;;13.20;3.10;;;9.80;99.90;;;;;;6116302;23;20006;-80
2022/10/08 04:06:03;;;;;;;11.48;3.40;;;9.80;99.90;;;;;;6117806;23;20316;-80
2022/10/08 04:08:28;;;;;;;11.70;3.33;;;9.70;99.90;;;;;;6115989;23;20508;-80
2022/10/08 04:10:54;;;;;;;6.22;3.13;;;9.70;99.90;;;;;;6116640;23;20014;-79
2022/10/08 04:13:23;;;;;;;14.82;3.45;;;9.70;99.90;;;;;;6116827;23;20305;-80
2022/10/08 04:15:51;;;;;;;8.15;3.25;;;9.60;99.90;;;;;;6116340;23;20014;-80
2022/10/08 04:18:20;;;;;;;9.43;2.70;;;9.60;99.90;;;;;;6117508;23;20009;-79
2022/10/08 04:20:45;;;;;;;11.50;3.40;;;9.70;99.90;;;;;;6117879;23;20104;-80
2022/10/08 04:23:11;;;;;;;14.07;3.58;;;9.60;99.90;;;;;;6117496;23;20420;-80
2022/10/08 04:25:37;;;;;;;17.08;4.70;;;9.60;99.90;;;;;;6118198;23;20108;-79
2022/10/08 04:28:04;;;;;;;11.55;3.38;;;9.50;99.90;;;;;;6116991;23;20085;-80
2022/10/08 04:30:30;;;;;;;12.38;3.10;;;9.60;99.90;;;;;;6117256;23;20018;-80
2022/10/08 04:32:58;;;;;;;9.45;2.72;;;9.50;99.90;;;;;;6117950;23;20002;-80
2022/10/08 04:35:24;;;;;;;14.85;3.10;;;9.50;99.90;;;;;;6117819;23;20002;-80
2022/10/08 04:37:50;;;;;;;9.45;2.95;;;9.50;99.90;;;;;;6118078;23;20305;-80
2022/10/08 04:40:15;;;;;;;9.52;3.15;;;9.50;99.90;;;;;;6117007;23;20002;-80
2022/10/08 04:42:41;;;;;;;9.57;2.72;;;9.50;99.90;;;;;;6117397;23;20473;-80
2022/10/08 04:45:07;;;;;;;13.90;3.58;;;9.50;99.90;;;;;;6117022;23;20097;-80
2022/10/08 04:47:32;;;;;;;15.82;3.92;;;9.50;99.90;;;;;;6118872;23;20020;-80
2022/10/08 04:49:58;;;;;;;9.82;3.17;;;9.40;99.90;;;;;;6116986;23;20010;-80
2022/10/08 04:52:23;;;;;;;12.00;3.17;;;9.40;99.90;;;;;;6117908;23;20080;-80
2022/10/08 04:54:49;;;;;;;17.77;4.70;;;9.40;99.90;;;;;;6117827;23;20324;-80
2022/10/08 04:57:15;;;;;;;13.48;3.75;;;9.40;99.90;;;;;;6117542;23;20431;-80
2022/10/08 04:59:40;;;;;;;11.38;3.05;;;9.40;99.90;;;;;;6116561;23;20010;-81
2022/10/08 05:02:06;;;;;;;13.77;3.28;;;9.40;99.90;;;;;;6117404;23;20010;-79
2022/10/08 05:04:31;;;;;;;16.67;3.88;;;9.30;99.90;;;;;;6117653;23;20052;-80
2022/10/08 05:06:57;;;;;;;14.63;3.78;;;9.30;99.90;;;;;;6117683;23;20302;-80
2022/10/08 05:09:23;;;;;;;12.35;3.17;;;9.30;99.90;;;;;;6117176;23;20020;-78
2022/10/08 05:11:51;;;;;;;7.47;2.97;;;9.30;99.90;;;;;;6117765;23;20010;-80
2022/10/08 05:14:17;;;;;;;16.23;3.08;;;9.30;99.90;;;;;;6116063;23;20010;-80
2022/10/08 05:16:42;;;;;;;5.82;2.80;;;9.30;99.90;;;;;;6117561;23;20025;-80
2022/10/08 05:19:08;;;;;;;11.75;3.40;;;9.30;99.90;;;;;;6117688;23;20028;-80
2022/10/08 05:21:34;;;;;;;17.92;4.75;;;9.30;99.90;;;;;;6117575;22;20014;-80
2022/10/08 05:24:03;;;;;;;15.38;3.58;;;9.30;99.90;;;;;;6116806;23;20002;-80
2022/10/08 05:26:32;;;;;;;9.98;3.53;;;9.40;99.90;;;;;;6117757;23;20006;-80
2022/10/08 05:28:59;;;;;;;17.27;3.85;;;9.40;99.90;;;;;;6116341;23;20477;-80
2022/10/08 05:31:27;;;;;;;14.73;3.17;;;9.50;99.90;;;;;;6117009;23;20073;-79
2022/10/08 05:33:53;;;;;;;14.73;3.65;;;9.60;99.90;;;;;;6116993;23;20451;-80
2022/10/08 05:36:22;;;;;;;24.98;4.55;;;9.60;99.90;;;;;;6118186;23;20009;-80
2022/10/08 05:38:48;;;;;;;15.48;3.40;;;9.80;99.90;;;;;;6116966;23;20447;-81
2022/10/08 05:41:16;;;;;;;24.60;4.15;;;9.80;99.90;;;;;;6115877;23;20002;-81
2022/10/08 05:43:41;;;;;;;19.80;4.78;;;9.90;99.90;;;;;;6113135;23;20006;-80
2022/10/08 05:46:08;;;;;;;21.02;3.75;;;10.00;99.90;;;;;;6113957;23;20006;-82
2022/10/08 05:48:34;;;;;;;12.73;3.80;;;10.10;99.90;;;;;;6113494;23;20433;-80
2022/10/08 05:51:04;;;;;;;14.70;3.63;;;10.10;99.90;;;;;;6116900;23;20007;-81
2022/10/08 05:53:30;;;;;;;22.20;3.95;;;10.10;99.90;;;;;;6114424;23;20056;-81
2022/10/08 05:56:00;;;;;;;17.85;3.65;;;10.20;99.90;;;;;;6116142;23;20006;-82
2022/10/08 05:58:25;;;;;;;19.13;4.00;;;10.30;99.90;;;;;;6115116;23;20002;-81
2022/10/08 06:00:59;;;;;;;19.25;4.40;;;10.30;99.90;;;;;;6116051;23;20082;-80
2022/10/08 06:03:25;;;;;;;21.38;4.35;;;10.30;99.90;;;;;;6116855;23;20081;-82
2022/10/08 06:05:51;;;;;;;19.67;3.92;;;10.30;99.90;;;;;;6116716;23;20002;-82
2022/10/08 06:08:21;;;;;;;16.90;3.95;;;10.40;99.90;;;;;;6117103;23;20388;-80
2022/10/08 06:10:56;;;;;;;18.33;4.50;;;10.50;99.90;;;;;;6117319;23;20093;-81
2022/10/08 06:13:21;;;;;;;20.80;4.03;;;10.40;99.90;;;;;;6115431;23;20017;-80
2022/10/08 06:16:01;;;;;;;20.30;4.38;;;10.50;99.90;;;;;;6119038;23;20006;-84
2022/10/08 06:18:29;;;;;;;14.68;3.85;;;10.50;99.90;;;;;;6115845;23;20002;-80
2022/10/08 06:20:54;;;;;;;13.00;3.13;;;10.60;99.90;;;;;;6115723;22;20017;-81
2022/10/08 06:23:23;;;;;;;17.95;3.78;;;10.70;99.90;;;;;;6118800;23;20028;-79
2022/10/08 06:25:49;;;;;;;16.00;4.30;;;10.80;99.90;;;;;;6116322;23;19998;-81
2022/10/08 06:28:15;;;;;;;24.83;5.13;;;10.80;99.90;;;;;;6119038;23;20002;-82
2022/10/08 06:30:42;;;;;;;25.67;3.60;;;10.90;99.90;;;;;;6116985;23;20022;-81
2022/10/08 06:33:09;;;;;;;20.30;4.03;;;11.00;99.90;;;;;;6117316;23;20006;-80
2022/10/08 06:35:34;;;;;;;21.05;3.83;;;11.10;99.90;;;;;;6117586;23;20006;-82
2022/10/08 06:38:01;;;;;;;18.92;3.17;;;11.20;99.90;;;;;;6116394;23;20006;-80
2022/10/08 06:40:39;;;;;;;23.65;3.75;;;11.30;99.90;;;;;;6116763;23;20029;-83
2022/10/08 06:43:13;;;;;;;15.25;3.83;;;11.40;99.90;;;;;;6117160;23;20493;-81
2022/10/08 06:45:40;;;;;;;24.63;3.50;;;11.50;99.90;;;;;;6116499;23;20002;-81
2022/10/08 06:48:06;;;;;;;14.15;3.50;;;11.50;99.90;;;;;;6117848;23;20045;-80
2022/10/08 06:50:32;;;;;;;16.38;3.67;;;11.50;99.90;;;;;;6114233;23;20021;-82
2022/10/08 06:52:58;;;;;;;21.98;3.30;;;11.60;99.90;;;;;;6115776;23;19998;-82
2022/10/08 06:55:31;;;;;;;24.50;4.22;;;11.70;99.90;;;;;;6114064;23;20002;-82
2022/10/08 06:57:56;;;;;;;23.10;3.38;;;11.80;99.90;;;;;;6117818;23;20008;-82
2022/10/08 07:00:28;;;;;;;24.27;3.83;;;11.80;99.90;;;;;;6117410;23;20081;-79
2022/10/08 07:02:56;;;;;;;22.90;3.88;;;11.90;99.90;;;;;;6117172;23;20002;-80
2022/10/08 07:05:24;;;;;;;19.13;3.78;;;12.00;99.90;;;;;;6117493;23;19998;-81
2022/10/08 07:07:50;;;;;;;21.50;3.90;;;12.00;99.90;;;;;;6116990;23;20018;-80
2022/10/08 07:10:15;;;;;;;17.95;3.20;;;12.20;99.90;;;;;;6115351;23;20014;-82
2022/10/08 07:12:41;;;;;;;21.25;4.03;;;12.30;99.90;;;;;;6116354;23;20021;-80
2022/10/08 07:15:07;;;;;;;21.60;4.25;;;12.30;99.90;;;;;;6116075;23;20139;-81
2022/10/08 07:17:33;;;;;;;24.02;3.90;;;12.40;99.90;;;;;;6115964;23;20013;-81
2022/10/08 07:19:58;;;;;;;13.50;2.80;;;12.40;99.90;;;;;;6117284;22;20018;-83
2022/10/08 07:22:27;;;;;;;14.52;2.72;;;12.40;99.90;;;;;;6118033;23;20079;-81
2022/10/08 07:24:53;;;;;;;17.85;3.78;;;12.50;99.90;;;;;;6114571;23;20006;-80
2022/10/08 07:27:19;;;;;;;17.70;3.60;;;12.50;99.90;;;;;;6114493;23;20052;-80
2022/10/08 07:29:45;;;;;;;24.08;5.18;;;12.50;99.90;;;;;;6116230;23;20351;-80
2022/10/08 07:32:11;;;;;;;12.85;2.83;;;12.50;99.90;;;;;;6114972;23;20010;-82
2022/10/08 07:34:37;;;;;;;20.25;3.60;;;12.60;99.90;;;;;;6115617;23;20002;-82
2022/10/08 07:37:02;;;;;;;18.33;3.75;;;12.60;99.90;;;;;;6116419;23;20009;-80
2022/10/08 07:39:28;;;;;;;12.98;3.15;;;12.70;99.90;;;;;;6115790;23;20007;-80
2022/10/08 07:41:53;;;;;;;14.23;3.15;;;12.80;99.90;;;;;;6115358;23;20098;-80
2022/10/08 07:44:25;;;;;;;21.88;3.53;;;12.80;99.90;;;;;;6116098;23;20005;-81
2022/10/08 07:46:52;;;;;;;17.40;3.65;;;12.80;99.90;;;;;;6116964;23;20009;-81
2022/10/08 07:49:24;;;;;;;15.00;3.40;;;12.90;99.90;;;;;;6115169;23;20382;-82
2022/10/08 07:51:50;;;;;;;8.18;2.08;;;12.90;99.90;;;;;;6117146;23;20006;-82
2022/10/08 07:54:17;;;;;;;8.95;3.25;;;12.90;99.90;;;;;;6115846;23;19998;-81
2022/10/08 07:56:43;;;;;;;11.35;3.00;;;12.90;99.90;;;;;;6115084;23;20006;-82
2022/10/08 07:59:13;;;;;;;17.25;3.00;;;13.00;99.90;;;;;;6113856;23;20020;-81
2022/10/08 08:01:40;;;;;;;24.40;3.60;;;13.10;99.90;;;;;;6116404;23;20351;-81
2022/10/08 08:04:07;;;;;;;19.00;3.58;;;13.10;99.90;;;;;;6116497;23;20017;-81
2022/10/08 08:06:38;;;;;;;19.00;3.45;;;13.10;99.90;;;;;;6117991;23;20026;-82
2022/10/08 08:09:04;;;;;;;14.15;3.28;;;13.00;99.90;;;;;;6116007;23;20013;-81
2022/10/08 08:11:30;;;;;;;9.05;2.42;;;13.20;99.90;;;;;;6115219;23;20013;-81
2022/10/08 08:13:56;;;;;;;14.65;3.10;;;13.30;99.90;;;;;;6116907;23;20076;-80
2022/10/08 08:16:26;;;;;;;11.38;2.70;;;13.30;99.90;;;;;;6117196;23;20476;-81
2022/10/08 08:18:56;;;;;;;11.30;2.78;;;13.40;99.90;;;;;;6114678;23;20336;-84
2022/10/08 08:21:36;;;;;;;19.85;4.13;;;13.50;99.90;;;;;;6116978;23;20022;-82
2022/10/08 08:24:05;;;;;;;14.02;2.60;;;13.50;99.90;;;;;;6113641;23;20101;-78
2022/10/08 08:26:34;;;;;;;13.55;2.70;;;13.60;99.90;;;;;;6113533;23;19998;-80
2022/10/08 08:29:05;;;;;;;108.38;49.15;;;13.60;99.90;;;;;;6116904;23;20071;-81
2022/10/08 08:31:33;;;;;;;11.98;2.90;;;13.60;99.90;;;;;;6116939;23;20427;-83
2022/10/08 08:34:04;;;;;;;10.15;3.15;;;13.70;99.90;;;;;;6115825;23;20009;-81
2022/10/08 08:36:39;;;;;;;12.68;2.85;;;13.70;99.90;;;;;;6117506;23;20006;-83
2022/10/08 08:39:08;;;;;;;9.50;2.65;;;13.70;99.90;;;;;;6116948;23;20083;-80
2022/10/08 08:41:42;;;;;;;18.20;2.40;;;13.70;99.90;;;;;;6117622;23;20002;-80
2022/10/08 08:44:15;;;;;;;9.38;2.72;;;13.80;99.90;;;;;;6115801;23;20343;-81
2022/10/08 08:46:45;;;;;;;15.77;2.33;;;13.80;99.90;;;;;;6115598;23;20563;-80
2022/10/08 08:49:18;;;;;;;7.65;1.92;;;13.80;99.90;;;;;;6116862;23;20045;-80
2022/10/08 08:51:44;;;;;;;9.65;2.05;;;13.80;99.90;;;;;;6118182;23;20006;-81
2022/10/08 08:54:10;;;;;;;3.90;1.50;;;13.80;99.90;;;;;;6117180;23;20419;-81
2022/10/08 08:56:35;;;;;;;7.80;1.98;;;13.80;99.90;;;;;;6116805;23;20006;-80
2022/10/08 08:59:27;;;;;;;8.27;1.85;;;13.70;99.90;;;;;;6117079;23;20002;-81
2022/10/08 09:01:58;;;;;;;3.63;1.58;;;13.60;99.90;;;;;;6116516;23;20081;-81
2022/10/08 09:05:01;;;;;;;12.10;2.05;;;13.60;99.90;;;;;;6116609;23;20009;-80
2022/10/08 09:07:37;;;;;;;10.48;1.63;;;13.50;99.90;;;;;;6027989;23;20003;-81
2022/10/08 09:10:05;;;;;;;;;;;13.50;99.90;;;;;;6106820;23;20459;-83
2022/10/08 09:12:42;;;;;;;5.55;1.48;;;13.50;99.90;;;;;;6112442;23;19927;-82
2022/10/08 09:15:28;;;;;;;2.50;1.10;;;13.40;99.90;;;;;;6114361;23;20006;-81
2022/10/08 09:17:54;;;;;;;2.00;1.48;;;13.40;99.90;;;;;;6115387;23;20052;-79
2022/10/08 09:20:24;;;;;;;8.00;1.73;;;13.50;99.90;;;;;;6090993;23;20026;-80
2022/10/08 09:22:52;;;;;;;7.22;1.70;;;13.50;99.90;;;;;;6117715;23;20006;-81
2022/10/08 09:25:31;;;;;;;3.72;1.33;;;13.70;99.90;;;;;;6116864;23;20006;-81
2022/10/08 09:28:02;;;;;;;9.35;1.48;;;13.60;99.90;;;;;;6115773;23;20033;-80
2022/10/08 09:30:36;;;;;;;3.40;1.25;;;13.70;99.90;;;;;;6115350;23;20021;-81
2022/10/08 09:33:17;;;;;;;8.75;1.52;;;13.70;99.90;;;;;;6115300;23;20737;-80
2022/10/08 09:35:48;;;;;;;6.10;2.15;;;13.70;99.90;;;;;;6117833;23;20385;-81
2022/10/08 09:38:25;;;;;;;4.82;1.83;;;13.70;99.90;;;;;;6119405;23;20009;-82
2022/10/08 09:41:10;;;;;;;9.23;2.63;;;13.80;99.90;;;;;;6116911;23;20020;-81
2022/10/08 09:43:36;;;;;;;6.07;2.00;;;13.70;99.90;;;;;;6116174;23;20077;-80
2022/10/08 09:46:28;;;;;;;6.13;1.55;;;13.70;99.90;;;;;;6117052;23;20044;-82
2022/10/08 09:48:53;;;;;;;4.32;1.60;;;13.60;99.90;;;;;;6091259;23;20009;-84
2022/10/08 09:51:19;;;;;;;3.55;1.30;;;13.60;99.90;;;;;;6117348;23;19998;-81
2022/10/08 09:53:45;;;;;;;9.55;1.65;;;13.60;99.90;;;;;;6119036;23;20051;-81
2022/10/08 09:56:12;;;;;;;8.68;1.75;;;13.60;99.90;;;;;;6119246;23;20416;-80
2022/10/08 09:58:51;;;;;;;3.38;1.10;;;13.50;99.90;;;;;;6114590;23;20479;-81
2022/10/08 10:01:18;;;;;;;8.65;2.05;;;13.50;99.90;;;;;;6117833;23;19998;-83
2022/10/08 10:03:55;;;;;;;4.85;1.08;;;13.50;99.90;;;;;;6117007;23;20058;-81
2022/10/08 10:06:33;;;;;;;6.20;1.50;;;13.40;99.90;;;;;;6118441;23;19998;-80
2022/10/08 10:09:25;;;;;;;7.80;1.30;;;13.40;99.90;;;;;;6118335;23;20017;-80
2022/10/08 10:12:19;;;;;;;3.28;1.50;;;13.30;99.90;;;;;;6116696;23;20006;-81
2022/10/08 10:14:49;;;;;;;6.72;1.52;;;13.30;99.90;;;;;;6105503;23;20013;-81
2022/10/08 10:17:35;;;;;;;5.75;1.30;;;13.30;99.90;;;;;;6090724;23;20014;-83
2022/10/08 10:20:03;;;;;;;;;;;13.30;99.90;;;;;;6116117;23;20049;-81
2022/10/08 10:22:59;;;;;;;8.32;1.42;;;13.30;99.90;;;;;;6115620;23;19909;-81
2022/10/08 10:25:43;;;;;;;3.85;1.55;;;13.30;99.90;;;;;;6112932;23;20447;-81
2022/10/08 10:28:19;;;;;;;3.85;1.00;;;13.30;99.90;;;;;;6118438;23;20016;-81
2022/10/08 10:31:12;;;;;;;5.38;1.40;;;13.50;99.90;;;;;;6118299;23;20045;-82
2022/10/08 10:33:55;;;;;;;5.18;1.35;;;13.40;99.90;;;;;;6117697;23;20358;-80
2022/10/08 10:36:35;;;;;;;5.43;1.30;;;13.50;99.90;;;;;;6115603;23;20364;-79
2022/10/08 10:39:39;;;;;;;6.25;1.40;;;13.50;99.90;;;;;;6116620;23;20002;-81
2022/10/08 10:42:30;;;;;;;11.40;2.05;;;13.50;99.90;;;;;;6116755;23;20033;-80
2022/10/08 10:45:18;;;;;;;3.95;1.30;;;13.50;99.90;;;;;;6118112;23;20010;-80
2022/10/08 10:47:44;;;;;;;5.13;1.30;;;13.60;99.90;;;;;;6117177;23;20010;-85
2022/10/08 10:50:14;;;;;;;3.42;1.52;;;13.60;99.90;;;;;;6116174;23;20143;-80
2022/10/08 10:52:49;;;;;;;5.43;1.75;;;13.60;99.90;;;;;;6117839;23;20002;-80
2022/10/08 10:55:36;;;;;;;4.70;1.30;;;13.70;99.90;;;;;;6117752;23;20013;-82
2022/10/08 10:58:28;;;;;;;7.32;1.50;;;13.80;99.90;;;;;;6118562;23;20568;-81
2022/10/08 11:01:11;;;;;;;4.25;1.50;;;13.80;99.90;;;;;;6117093;23;20284;-81
2022/10/08 11:03:57;;;;;;;3.97;1.73;;;13.90;99.90;;;;;;6117972;23;20307;-81
2022/10/08 11:06:45;;;;;;;7.03;1.40;;;14.00;99.90;;;;;;6116762;23;20013;-81
2022/10/08 11:09:38;;;;;;;9.60;1.60;;;14.20;99.90;;;;;;6118303;23;20024;-81
2022/10/08 11:12:34;;;;;;;6.93;1.55;;;14.20;99.90;;;;;;6091563;23;20006;-81
2022/10/08 11:15:00;;;;;;;;;;;14.20;99.90;;;;;;6117375;23;20006;-80
2022/10/08 11:17:51;;;;;;;5.70;1.42;;;14.30;99.90;;;;;;6117539;23;19946;-81
2022/10/08 11:20:38;;;;;;;4.93;1.73;;;14.30;99.90;;;;;;6115568;23;20010;-81
2022/10/08 11:23:53;;;;;;;6.88;2.05;;;14.40;99.90;;;;;;6118836;23;20010;-80
2022/10/08 11:26:38;;;;;;;8.65;1.40;;;14.60;99.90;;;;;;6082701;23;20068;-84
2022/10/08 11:29:31;;;;;;;10.30;2.17;;;14.60;99.90;;;;;;6118050;23;20018;-81
2022/10/08 11:31:57;;;;;;;10.05;2.22;;;14.70;99.90;;;;;;6117437;23;20447;-82
2022/10/08 11:34:35;;;;;;;5.55;1.58;;;14.80;99.90;;;;;;6117863;23;20028;-81
2022/10/08 11:37:39;;;;;;;3.67;1.33;;;14.70;99.90;;;;;;6118273;23;20009;-82
2022/10/08 11:40:25;;;;;;;5.15;2.67;;;14.50;99.90;;;;;;6027869;23;20004;-81
2022/10/08 11:42:57;;;;;;;6.43;1.77;;;14.50;99.90;;;;;;6026028;23;20527;-84
2022/10/08 11:45:22;;;;;;;7.78;1.73;;;14.40;99.90;;;;;;6083372;23;20002;-80
2022/10/08 11:47:53;;;;;;;5.07;1.45;;;14.40;99.90;;;;;;6118981;23;20008;-81
2022/10/08 11:50:36;;;;;;;9.57;2.22;;;14.50;99.90;;;;;;6113698;23;20366;-85
2022/10/08 11:53:18;;;;;;;11.40;2.83;;;14.60;99.90;;;;;;6115267;23;20034;-81
2022/10/08 11:55:57;;;;;;;5.65;1.95;;;14.60;99.90;;;;;;6116652;23;20017;-81
2022/10/08 11:58:34;;;;;;;9.05;2.03;;;14.60;99.90;;;;;;6116682;23;20454;-81
2022/10/08 12:01:03;;;;;;;2.28;1.35;;;14.60;99.90;;;;;;6116950;23;20002;-81
2022/10/08 12:03:36;;;;;;;4.95;2.03;;;14.70;99.90;;;;;;6116874;23;20063;-84
2022/10/08 12:06:33;;;;;;;5.78;2.10;;;14.80;99.90;;;;;;6115913;23;20006;-81
2022/10/08 12:09:05;;;;;;;7.68;1.67;;;14.70;99.90;;;;;;6110973;23;20454;-80
2022/10/08 12:11:31;;;;;;;3.90;2.10;;;14.60;99.90;;;;;;6117541;23;20047;-81
2022/10/08 12:14:11;;;;;;;12.05;2.95;;;14.50;99.90;;;;;;6117723;23;20010;-83
2022/10/08 12:16:46;;;;;;;5.63;2.30;;;14.50;99.90;;;;;;6117170;23;20308;-82
2022/10/08 12:19:33;;;;;;;9.73;4.30;;;14.60;99.90;;;;;;6117072;23;20259;-80
2022/10/08 12:22:27;;;;;;;5.50;2.10;;;14.70;99.90;;;;;;6116202;23;20065;-80
2022/10/08 12:25:00;;;;;;;6.50;2.10;;;14.70;99.90;;;;;;6116288;23;20184;-81
2022/10/08 12:27:28;;;;;;;8.00;3.47;;;14.80;99.90;;;;;;6116911;23;20443;-81
2022/10/08 12:29:56;;;;;;;10.82;2.92;;;14.90;99.90;;;;;;6117383;23;20045;-81
2022/10/08 12:32:27;;;;;;;7.88;2.45;;;14.90;99.90;;;;;;6118625;23;20017;-80
2022/10/08 12:34:53;;;;;;;5.35;2.25;;;15.00;99.90;;;;;;6117261;23;20017;-82
2022/10/08 12:37:48;;;;;;;4.68;2.22;;;15.10;99.90;;;;;;6118102;23;20470;-83
2022/10/08 12:40:44;;;;;;;10.48;2.90;;;15.20;99.90;;;;;;6117647;23;20012;-80
2022/10/08 12:43:21;;;;;;;4.63;2.33;;;15.30;99.90;;;;;;6081209;23;20006;-81
2022/10/08 12:46:01;;;;;;;12.82;3.28;;;15.40;99.90;;;;;;6116114;23;20022;-83
2022/10/08 12:48:39;;;;;;;7.22;2.42;;;15.50;99.90;;;;;;6118489;23;19998;-80
2022/10/08 12:51:23;;;;;;;15.25;2.95;;;15.60;99.90;;;;;;6118190;23;20020;-81
2022/10/08 12:53:49;;;;;;;8.23;2.80;;;15.50;99.90;;;;;;6118325;23;20339;-80
2022/10/08 12:56:27;;;;;;;8.02;2.63;;;15.40;99.90;;;;;;6118220;23;19998;-81
2022/10/08 12:58:55;;;;;;;7.05;2.53;;;15.20;99.90;;;;;;6118495;23;20009;-79
2022/10/08 13:01:21;;;;;;;9.68;3.08;;;15.10;99.90;;;;;;6118130;23;20002;-79
2022/10/08 13:04:06;;;;;;;11.57;2.63;;;15.10;99.90;;;;;;6118131;23;20010;-81
2022/10/08 13:06:38;;;;;;;8.43;3.38;;;15.20;99.90;;;;;;6117972;23;20002;-80
2022/10/08 13:09:26;;;;;;;7.72;2.15;;;15.20;99.90;;;;;;6118086;23;20063;-81
2022/10/08 13:11:53;;;;;;;11.10;3.22;;;15.20;99.90;;;;;;6114478;23;20010;-80